Time;durP1;ratioP1;P1;durP2;ratioP2;P2;SDS_P1;SDS_P2;PMS_P1;PMS_P2;Temp;Humidity;BMP_temperature;BMP_pressure;BME280_temperature;BME280_humidity;BME280_pressure;Samples;Min_cycle;Max_cycle;Signal;HPM_P1;HPM_P2
2023/01/05 00:01:11;;;;;;;10.50;5.97;;;;;;;3.94;62.16;100490.64;1765034;81;21004;-70
2023/01/05 00:03:39;;;;;;;8.23;5.42;;;;;;;3.98;62.12;100486.56;1765140;81;20937;-70
2023/01/05 00:06:09;;;;;;;8.30;5.22;;;;;;;3.99;62.13;100476.80;1765000;80;20942;-69
2023/01/05 00:08:36;;;;;;;9.70;5.80;;;;;;;4.03;62.06;100477.17;1763878;81;20954;-70
2023/01/05 00:22:33;;;;;;;10.10;5.87;;;;;;;4.20;61.68;100456.58;1765405;81;21111;-70
2023/01/05 00:25:10;;;;;;;8.98;5.30;;;;;;;4.25;61.62;100447.21;1761729;80;21622;-70
2023/01/05 00:27:36;;;;;;;8.70;5.58;;;;;;;4.28;61.47;100446.75;1733998;82;21043;-70
2023/01/05 00:30:05;;;;;;;9.15;5.58;;;;;;;4.26;61.31;100439.05;1734838;81;21236;-71
2023/01/05 00:32:32;;;;;;;7.85;5.25;;;;;;;4.26;61.31;100428.98;1735056;82;21581;-71
2023/01/05 00:34:58;;;;;;;7.03;4.67;;;;;;;4.27;61.25;100424.80;1734717;82;20961;-70
2023/01/05 00:37:29;;;;;;;10.48;5.20;;;;;;;4.30;61.19;100409.02;1734851;82;21522;-71
2023/01/05 00:39:56;;;;;;;8.30;4.95;;;;;;;4.29;61.18;100400.27;1745050;80;21038;-71
2023/01/05 00:42:23;;;;;;;8.75;5.42;;;;;;;4.30;61.18;100396.59;1747065;81;21120;-71
2023/01/05 00:44:50;;;;;;;8.10;5.47;;;;;;;4.32;61.13;100395.88;1765130;81;21527;-71
2023/01/05 00:47:16;;;;;;;8.50;5.42;;;;;;;4.32;61.02;100384.49;1765324;81;21083;-71
2023/01/05 00:49:43;;;;;;;9.90;5.47;;;;;;;4.29;61.00;100369.88;1764966;81;20988;-71
2023/01/05 00:52:11;;;;;;;9.65;5.58;;;;;;;4.28;60.99;100349.76;1765165;80;21693;-70
2023/01/05 00:54:39;;;;;;;8.75;5.72;;;;;;;4.28;61.00;100357.69;1765144;81;21545;-70
2023/01/05 00:57:06;;;;;;;7.20;4.87;;;;;;;4.27;61.01;100350.77;1765021;81;20996;-70
2023/01/05 00:59:34;;;;;;;9.25;5.70;;;;;;;4.28;61.05;100344.95;1763851;81;20996;-71
2023/01/05 01:02:01;;;;;;;9.10;5.25;;;;;;;4.24;61.04;100334.02;1765175;81;21048;-71
2023/01/05 01:04:30;;;;;;;8.18;5.78;;;;;;;4.26;61.10;100328.53;1765056;81;21570;-69
2023/01/05 01:06:57;;;;;;;7.67;4.83;;;;;;;4.26;61.12;100326.69;1765148;81;21169;-69
2023/01/05 01:09:24;;;;;;;8.20;5.62;;;;;;;4.29;61.10;100321.48;1765127;81;21170;-69
2023/01/05 01:11:51;;;;;;;8.30;5.45;;;;;;;4.28;61.10;100310.09;1765208;81;20996;-70
2023/01/05 01:14:18;;;;;;;7.92;5.37;;;;;;;4.31;61.09;100304.86;1765011;81;21145;-70
2023/01/05 01:16:46;;;;;;;8.23;5.60;;;;;;;4.33;61.10;100273.73;1763918;81;20945;-70
2023/01/05 01:19:16;;;;;;;8.18;5.22;;;;;;;4.37;61.12;100266.44;1765034;81;21872;-70
2023/01/05 01:21:42;;;;;;;9.73;5.80;;;;;;;4.41;61.07;100263.66;1765150;80;21420;-70
2023/01/05 01:24:21;;;;;;;8.78;5.50;;;;;;;4.45;61.01;100247.63;1764836;81;21114;-70
2023/01/05 01:26:48;;;;;;;8.10;4.78;;;;;;;4.45;60.96;100230.44;1765165;80;20973;-70
2023/01/05 01:29:16;;;;;;;7.67;5.05;;;;;;;4.48;60.90;100237.66;1765144;81;20977;-71
2023/01/05 01:31:46;;;;;;;9.35;5.33;;;;;;;4.50;60.81;100246.95;1765124;81;21549;-71
2023/01/05 01:34:13;;;;;;;9.90;5.67;;;;;;;4.51;60.73;100238.00;1763779;80;21113;-70
2023/01/05 01:36:41;;;;;;;8.35;5.15;;;;;;;4.49;60.66;100231.32;1743110;81;21055;-71
2023/01/05 01:39:09;;;;;;;8.78;5.08;;;;;;;4.49;60.70;100231.32;1748826;81;21502;-71
2023/01/05 01:41:38;;;;;;;7.00;5.42;;;;;;;4.52;60.74;100222.94;1756587;81;20961;-69
2023/01/05 01:44:51;;;;;;;9.28;5.62;;;;;;;4.56;60.70;100212.19;1773119;81;21238;-69
2023/01/05 01:47:33;;;;;;;8.03;5.53;;;;;;;4.59;60.67;100199.84;1773350;81;20952;-70
2023/01/05 01:50:21;;;;;;;10.68;5.75;;;;;;;4.58;60.48;100193.75;1769313;81;21171;-69
2023/01/05 01:52:49;;;;;;;9.85;5.85;;;;;;;4.57;60.53;100186.83;1741511;82;21000;-70
2023/01/05 01:55:18;;;;;;;7.50;4.87;;;;;;;4.60;60.51;100171.03;1742613;82;21064;-70
2023/01/05 01:57:45;;;;;;;9.48;5.45;;;;;;;4.60;60.52;100148.55;1742451;82;21236;-70
2023/01/05 02:00:13;;;;;;;9.00;5.47;;;;;;;4.60;60.50;100145.37;1742547;82;21068;-69
2023/01/05 02:02:53;;;;;;;10.30;5.95;;;;;;;4.63;60.50;100133.54;1742445;82;21316;-69
2023/01/05 02:05:28;;;;;;;9.53;5.87;;;;;;;4.61;60.44;100123.72;1742548;82;21004;-69
2023/01/05 02:07:55;;;;;;;7.97;5.45;;;;;;;4.62;60.46;100116.88;1743525;81;21004;-70
2023/01/05 02:10:37;;;;;;;9.05;6.28;;;;;;;4.66;60.49;100105.31;1742676;82;21300;-70
2023/01/05 02:13:10;;;;;;;10.20;6.10;;;;;;;4.67;60.53;100102.95;1742731;82;27156;-70
2023/01/05 02:16:16;;;;;;;10.38;6.45;;;;;;;4.70;60.51;100099.84;1742353;82;21369;-70
2023/01/05 02:18:58;;;;;;;9.50;6.25;;;;;;;4.73;60.46;100081.39;1742170;82;21087;-69
2023/01/05 02:21:51;;;;;;;8.88;6.30;;;;;;;4.74;60.39;100072.41;1742903;82;21102;-69
2023/01/05 02:24:53;;;;;;;9.78;6.58;;;;;;;4.78;60.36;100069.09;1720824;81;21131;-70
2023/01/05 02:27:59;;;;;;;9.58;6.42;;;;;;;4.77;60.36;100064.84;1773319;81;21657;-70
2023/01/05 02:30:50;;;;;;;13.20;7.50;;;;;;;4.81;60.36;100053.28;1773179;81;20999;-71
2023/01/05 02:34:06;;;;;;;9.85;6.67;;;;;;;4.82;60.35;100037.16;1773439;81;20984;-70
2023/01/05 02:36:55;;;;;;;9.95;6.85;;;;;;;4.84;60.33;100032.97;1770548;81;20959;-70
2023/01/05 02:39:33;;;;;;;12.37;7.25;;;;;;;4.86;60.33;100027.71;1757960;81;21136;-69
2023/01/05 02:42:21;;;;;;;11.63;7.10;;;;;;;4.88;60.32;100024.33;1717153;82;21529;-69
2023/01/05 02:44:48;;;;;;;11.78;7.47;;;;;;;4.87;60.36;100026.70;1742389;82;21024;-69
2023/01/05 02:47:29;;;;;;;10.68;6.80;;;;;;;4.87;60.37;100022.73;1742867;82;21071;-70
2023/01/05 02:50:10;;;;;;;11.90;7.80;;;;;;;4.87;60.39;100016.11;1742437;82;21153;-69
2023/01/05 02:52:48;;;;;;;12.10;7.65;;;;;;;4.88;60.39;100021.68;1742635;82;21558;-69
2023/01/05 02:55:19;;;;;;;12.85;7.90;;;;;;;4.89;60.40;100010.05;1740637;82;21016;-69
2023/01/05 02:57:57;;;;;;;14.40;8.75;;;;;;;4.92;60.43;100004.30;1743631;81;21016;-69
2023/01/05 03:00:30;;;;;;;12.88;8.58;;;;;;;4.91;60.41;99998.73;1738583;82;21098;-68
2023/01/05 03:03:01;;;;;;;13.98;8.60;;;;;;;4.92;60.44;100000.33;1742587;82;21075;-69
2023/01/05 03:05:32;;;;;;;;;;;;;;;4.91;60.40;99990.78;1745071;82;22309;-68
2023/01/05 03:08:05;;;;;;;11.90;8.53;;;;;;;4.90;60.44;99988.36;1742473;82;20221;-68
2023/01/05 03:16:00;;;;;;;14.13;8.35;;;;;;;4.92;60.54;99962.48;1743645;81;21059;-70
2023/01/05 03:18:29;;;;;;;16.30;8.85;;;;;;;4.92;60.54;99952.69;1737927;82;21153;-69
2023/01/05 03:20:56;;;;;;;11.97;8.00;;;;;;;4.93;60.58;99941.58;1742508;82;20953;-69
2023/01/05 03:37:58;;;;;;;12.25;8.50;;;;;;;5.13;60.65;99892.20;1742839;82;21126;-69
2023/01/05 03:40:33;;;;;;;12.88;7.92;;;;;;;5.10;60.61;99893.99;1742701;82;21047;-69
2023/01/05 03:42:59;;;;;;;11.90;8.20;;;;;;;5.12;60.75;99896.69;1742044;82;21043;-68
2023/01/05 03:45:42;;;;;;;12.95;8.30;;;;;;;5.10;60.88;99875.47;1742548;82;21113;-68
2023/01/05 03:48:10;;;;;;;11.95;9.15;;;;;;;5.08;61.11;99878.36;1733359;82;21497;-69
2023/01/05 03:50:38;;;;;;;11.40;8.15;;;;;;;5.09;61.33;99875.98;1743453;81;20956;-69
2023/01/05 03:53:04;;;;;;;11.88;8.73;;;;;;;5.11;61.48;99868.62;1742363;82;21047;-68
2023/01/05 03:55:32;;;;;;;11.97;8.25;;;;;;;5.13;61.63;99850.67;1742546;82;21011;-68
2023/01/05 03:58:01;;;;;;;19.40;10.30;;;;;;;5.16;61.73;99848.05;1713666;82;21617;-68
2023/01/05 04:00:29;;;;;;;12.75;8.70;;;;;;;5.15;61.87;99835.86;1742435;82;21051;-69
2023/01/05 04:02:58;;;;;;;15.13;9.45;;;;;;;5.14;62.00;99841.68;1742242;82;21486;-69
2023/01/05 04:05:26;;;;;;;15.48;9.70;;;;;;;5.16;62.13;99830.31;1742663;82;20968;-69
2023/01/05 04:07:53;;;;;;;14.35;9.18;;;;;;;5.15;62.31;99829.24;1743311;81;21191;-69
2023/01/05 04:10:20;;;;;;;12.53;8.83;;;;;;;5.15;62.55;99817.33;1742435;82;21902;-70
2023/01/05 04:12:48;;;;;;;14.13;9.08;;;;;;;5.12;62.79;99808.02;1742665;82;21003;-70
2023/01/05 04:15:17;;;;;;;13.70;9.60;;;;;;;5.11;63.02;99802.97;1742594;82;21083;-70
2023/01/05 04:17:45;;;;;;;13.43;8.70;;;;;;;5.13;63.23;99792.93;1742326;82;20984;-68
2023/01/05 04:20:12;;;;;;;14.68;9.78;;;;;;;5.13;63.39;99789.78;1742439;82;20980;-70
2023/01/05 04:22:40;;;;;;;13.13;9.15;;;;;;;5.12;63.53;99783.39;1742863;81;21326;-70
2023/01/05 04:25:08;;;;;;;13.28;9.18;;;;;;;5.12;63.66;99768.30;1772388;81;20988;-70
2023/01/05 04:27:35;;;;;;;14.07;9.33;;;;;;;5.15;63.87;99763.06;1773155;81;21007;-69
2023/01/05 04:30:07;;;;;;;13.43;9.93;;;;;;;5.15;63.94;99763.86;1772947;81;21043;-70
2023/01/05 04:32:35;;;;;;;14.40;9.35;;;;;;;5.16;64.06;99758.04;1773134;81;21038;-71
2023/01/05 04:35:03;;;;;;;12.28;9.15;;;;;;;5.16;64.22;99750.09;1755350;81;21277;-69
2023/01/05 04:37:31;;;;;;;13.68;9.15;;;;;;;5.17;64.39;99745.91;1742433;82;21090;-70
2023/01/05 04:39:57;;;;;;;14.43;9.70;;;;;;;5.17;64.58;99735.31;1745065;81;21087;-69
2023/01/05 04:42:25;;;;;;;15.10;9.98;;;;;;;5.16;64.73;99721.77;1773438;81;20993;-70
2023/01/05 04:44:54;;;;;;;14.68;10.28;;;;;;;5.18;64.84;99714.94;1773273;81;21016;-70
2023/01/05 04:47:21;;;;;;;14.73;9.85;;;;;;;5.21;64.98;99705.19;1773245;81;21399;-71
2023/01/05 04:49:49;;;;;;;13.80;9.43;;;;;;;5.20;65.09;99703.59;1772966;81;20969;-71
2023/01/05 04:52:16;;;;;;;12.35;9.58;;;;;;;5.20;65.20;99685.06;1773135;81;21024;-71
2023/01/05 04:54:43;;;;;;;16.10;10.58;;;;;;;5.22;65.32;99687.45;1773114;81;20959;-71
2023/01/05 04:57:10;;;;;;;14.28;10.03;;;;;;;5.25;65.37;99671.88;1772342;81;21509;-73
2023/01/05 04:59:38;;;;;;;14.87;10.10;;;;;;;5.24;65.50;99667.64;1773156;81;21550;-71
2023/01/05 05:02:04;;;;;;;15.15;10.30;;;;;;;5.20;65.69;99658.59;1772963;81;21576;-71
2023/01/05 05:04:32;;;;;;;12.60;9.30;;;;;;;5.24;65.87;99651.75;1773026;81;21032;-71
2023/01/05 05:06:59;;;;;;;12.10;9.13;;;;;;;5.24;66.02;99648.30;1773374;81;20996;-72
2023/01/05 05:09:28;;;;;;;12.88;8.70;;;;;;;5.22;66.16;99631.33;1772944;81;21059;-71
2023/01/05 05:11:56;;;;;;;14.38;9.13;;;;;;;5.25;66.36;99632.69;1773130;81;21347;-70
2023/01/05 05:14:22;;;;;;;13.45;8.63;;;;;;;5.26;66.51;99628.99;1771971;81;20972;-73
2023/01/05 05:16:49;;;;;;;13.62;9.60;;;;;;;5.20;66.78;99630.79;1773407;81;20969;-69
2023/01/05 05:19:16;;;;;;;14.50;9.73;;;;;;;5.14;67.01;99623.81;1773333;81;20956;-71
2023/01/05 05:21:43;;;;;;;13.28;9.68;;;;;;;5.15;67.26;99632.03;1773345;81;21039;-72
2023/01/05 05:24:11;;;;;;;13.32;9.70;;;;;;;5.16;67.47;99604.50;1773154;81;21266;-72
2023/01/05 05:26:39;;;;;;;14.70;10.10;;;;;;;5.17;67.65;99594.22;1765276;80;21791;-71
2023/01/05 05:29:06;;;;;;;14.07;10.03;;;;;;;5.17;67.91;99616.72;1765292;81;21459;-71
2023/01/05 05:31:33;;;;;;;13.22;9.08;;;;;;;5.13;68.17;99592.58;1764254;81;21527;-70
2023/01/05 05:33:59;;;;;;;12.00;9.05;;;;;;;5.13;68.72;99597.87;1765336;81;21000;-72
2023/01/05 05:36:26;;;;;;;14.55;9.48;;;;;;;5.09;68.95;99590.13;1765427;81;21231;-71
2023/01/05 05:38:53;;;;;;;13.65;9.23;;;;;;;5.11;69.29;99584.59;1765251;81;21621;-72
2023/01/05 05:41:20;;;;;;;12.95;9.50;;;;;;;5.11;69.62;99583.28;1744374;81;21024;-73
2023/01/05 05:43:47;;;;;;;15.45;10.00;;;;;;;5.14;69.92;99570.88;1734917;82;21511;-72
2023/01/05 05:46:14;;;;;;;12.28;8.45;;;;;;;5.20;70.12;99564.61;1735027;82;21012;-73
2023/01/05 05:48:40;;;;;;;11.55;8.25;;;;;;;5.24;70.25;99566.23;1736011;81;21069;-74
2023/01/05 05:51:07;;;;;;;10.70;7.70;;;;;;;5.28;70.44;99561.52;1735007;82;21185;-73
2023/01/05 05:53:34;;;;;;;12.45;8.85;;;;;;;5.30;70.57;99556.78;1734923;82;21015;-74
2023/01/05 05:56:01;;;;;;;11.35;8.80;;;;;;;5.30;70.90;99542.22;1735196;82;21019;-74
2023/01/05 05:58:28;;;;;;;12.07;8.70;;;;;;;5.32;71.12;99541.96;1734850;82;21471;-73
2023/01/05 06:00:58;;;;;;;11.35;8.33;;;;;;;5.31;71.31;99524.48;1734989;82;21686;-73
2023/01/05 06:03:24;;;;;;;9.80;7.15;;;;;;;5.35;71.41;99521.61;1735125;82;21187;-74
2023/01/05 06:05:52;;;;;;;12.45;8.38;;;;;;;5.40;71.53;99511.09;1735999;81;21086;-72
2023/01/05 06:08:18;;;;;;;11.85;7.92;;;;;;;5.40;71.66;99501.83;1734834;82;21020;-70
2023/01/05 06:10:45;;;;;;;10.82;7.40;;;;;;;5.43;71.75;99502.66;1735048;82;21048;-71
2023/01/05 06:13:12;;;;;;;10.48;8.08;;;;;;;5.46;71.79;99506.09;1734854;82;22108;-74
2023/01/05 06:15:39;;;;;;;10.38;7.60;;;;;;;5.51;71.81;99500.87;1734910;82;20997;-73
2023/01/05 06:18:06;;;;;;;12.47;8.90;;;;;;;5.54;71.82;99500.38;1734794;82;21064;-74
2023/01/05 06:20:34;;;;;;;9.63;7.50;;;;;;;5.55;71.82;99497.20;1734972;82;21080;-72
2023/01/05 06:23:01;;;;;;;11.20;7.50;;;;;;;5.58;71.89;99486.10;1736001;81;21060;-74
2023/01/05 06:25:28;;;;;;;12.07;8.30;;;;;;;5.61;71.86;99491.70;1734883;82;21529;-73
2023/01/05 06:27:55;;;;;;;10.53;8.18;;;;;;;5.67;71.85;99481.96;1734814;82;21072;-72
2023/01/05 06:30:22;;;;;;;12.15;9.23;;;;;;;5.67;71.85;99483.28;1734919;82;21531;-73
2023/01/05 06:32:48;;;;;;;12.00;8.25;;;;;;;5.68;71.85;99472.95;1744683;81;21027;-74
2023/01/05 06:35:16;;;;;;;12.35;7.95;;;;;;;5.72;71.88;99472.72;1748064;82;21094;-71
2023/01/05 06:37:43;;;;;;;12.15;9.05;;;;;;;5.74;71.86;99475.92;1747744;82;21879;-73
2023/01/05 06:40:10;;;;;;;12.25;8.38;;;;;;;5.78;71.83;99464.30;1757371;81;21122;-73
2023/01/05 06:42:38;;;;;;;12.28;8.75;;;;;;;5.76;71.86;99471.69;1765682;81;21551;-73
2023/01/05 06:45:06;;;;;;;12.95;8.93;;;;;;;5.74;71.91;99464.00;1765164;81;21023;-75
2023/01/05 06:47:34;;;;;;;11.88;8.68;;;;;;;5.79;71.89;99450.81;1765591;81;21526;-75
2023/01/05 06:50:03;;;;;;;12.55;8.83;;;;;;;5.83;71.87;99449.78;1765165;81;21021;-71
2023/01/05 06:52:29;;;;;;;11.22;8.88;;;;;;;5.85;71.83;99450.31;1765252;81;21424;-73
2023/01/05 06:54:56;;;;;;;12.18;8.70;;;;;;;5.90;71.83;99438.44;1765214;81;21009;-74
2023/01/05 06:57:24;;;;;;;13.05;8.13;;;;;;;5.92;71.74;99432.87;1764135;81;20953;-71
2023/01/05 06:59:51;;;;;;;12.07;8.63;;;;;;;5.96;71.75;99436.13;1765364;81;21492;-74
2023/01/05 07:02:18;;;;;;;12.95;8.90;;;;;;;5.98;71.67;99454.41;1765423;81;21178;-73
2023/01/05 07:04:45;;;;;;;12.75;8.93;;;;;;;6.01;71.62;99421.58;1765458;81;21001;-73
2023/01/05 07:07:12;;;;;;;12.63;9.33;;;;;;;6.04;71.55;99414.97;1765374;81;21032;-74
2023/01/05 07:09:39;;;;;;;12.55;9.65;;;;;;;6.04;71.46;99420.27;1765482;81;21004;-75
2023/01/05 07:12:08;;;;;;;13.13;8.98;;;;;;;6.07;71.38;99425.06;1765158;81;20965;-74
2023/01/05 07:14:36;;;;;;;12.07;8.93;;;;;;;6.05;71.27;99437.23;1764209;81;21167;-74
2023/01/05 07:17:04;;;;;;;12.33;8.90;;;;;;;6.07;71.28;99408.63;1765302;81;21028;-73
2023/01/05 07:19:31;;;;;;;10.75;8.63;;;;;;;6.11;71.27;99403.08;1765214;81;21067;-73
2023/01/05 07:21:58;;;;;;;11.38;8.15;;;;;;;6.15;71.17;99397.27;1765384;81;20953;-71
2023/01/05 07:24:25;;;;;;;13.00;9.18;;;;;;;6.17;71.13;99393.85;1765202;81;21555;-74
2023/01/05 07:26:52;;;;;;;12.13;8.85;;;;;;;6.15;71.11;99401.25;1765297;81;21120;-73
2023/01/05 07:29:18;;;;;;;12.20;8.20;;;;;;;6.16;71.18;99398.36;1765232;81;20953;-72
2023/01/05 07:31:50;;;;;;;12.37;9.18;;;;;;;6.18;71.22;99388.81;1764247;81;20960;-73
2023/01/05 07:34:15;;;;;;;11.50;8.08;;;;;;;6.16;71.31;99388.28;1764961;81;20964;-74
2023/01/05 07:36:42;;;;;;;12.35;8.85;;;;;;;6.19;71.38;99381.94;1765333;81;21048;-73
2023/01/05 07:39:08;;;;;;;14.87;9.10;;;;;;;6.24;71.42;99366.58;1765555;81;21107;-73
2023/01/05 07:41:36;;;;;;;11.57;8.50;;;;;;;6.18;71.52;99358.32;1765284;81;20988;-72
2023/01/05 07:44:05;;;;;;;15.18;9.18;;;;;;;6.23;71.57;99369.76;1765085;81;21001;-72
2023/01/05 07:46:31;;;;;;;11.88;9.18;;;;;;;6.26;71.66;99359.97;1765415;81;21150;-72
2023/01/05 07:48:58;;;;;;;10.38;7.55;;;;;;;6.29;71.66;99367.41;1736862;81;21017;-75
2023/01/05 07:51:25;;;;;;;12.85;8.78;;;;;;;6.31;71.74;99356.00;1735171;82;21809;-74
2023/01/05 07:53:52;;;;;;;13.25;8.53;;;;;;;6.32;71.80;99355.49;1735104;82;21186;-73
2023/01/05 07:56:19;;;;;;;11.35;8.60;;;;;;;6.32;71.82;99350.98;1734901;82;21530;-72
2023/01/05 07:58:45;;;;;;;12.10;8.50;;;;;;;6.35;71.87;99343.05;1734671;82;20969;-73
2023/01/05 08:01:13;;;;;;;12.90;8.80;;;;;;;6.41;71.87;99345.96;1735128;82;20972;-73
2023/01/05 08:03:41;;;;;;;10.78;8.30;;;;;;;6.43;71.75;99353.15;1735046;81;21798;-72
2023/01/05 08:06:13;;;;;;;11.68;7.90;;;;;;;6.43;71.76;99344.39;1764308;81;21110;-72
2023/01/05 08:08:40;;;;;;;10.35;8.08;;;;;;;6.44;71.75;99348.64;1765291;81;21055;-71
2023/01/05 08:11:09;;;;;;;12.88;8.08;;;;;;;6.45;71.78;99333.80;1765222;81;21084;-71
2023/01/05 08:16:21;;;;;;;12.80;8.13;;;;;;;6.47;71.63;99329.55;1765214;81;21624;-72
2023/01/05 08:18:49;;;;;;;10.78;8.18;;;;;;;6.49;71.49;99329.56;1765073;81;21072;-71
2023/01/05 08:21:15;;;;;;;9.53;7.25;;;;;;;6.53;71.48;99316.05;1759029;81;21451;-73
2023/01/05 08:23:42;;;;;;;10.98;8.08;;;;;;;6.58;71.36;99319.23;1734760;82;21051;-72
2023/01/05 08:26:15;;;;;;;10.82;7.97;;;;;;;6.62;71.23;99321.66;1734897;82;20956;-74
2023/01/05 08:28:42;;;;;;;11.45;8.30;;;;;;;6.68;71.06;99317.14;1736226;81;21573;-72
2023/01/05 08:31:22;;;;;;;10.80;7.53;;;;;;;6.71;70.91;99306.83;1748077;82;20987;-70
2023/01/05 08:33:50;;;;;;;12.43;8.03;;;;;;;6.78;70.86;99310.02;1748074;82;20984;-71
2023/01/05 08:36:19;;;;;;;10.72;8.20;;;;;;;6.83;70.72;99295.16;1747637;82;21101;-72
2023/01/05 08:38:47;;;;;;;10.60;7.80;;;;;;;6.87;70.36;99289.59;1744012;81;21075;-71
2023/01/05 08:41:18;;;;;;;11.15;8.05;;;;;;;6.88;70.13;99280.55;1745883;81;22823;-71
2023/01/05 08:43:55;;;;;;;11.68;8.20;;;;;;;6.90;70.03;99279.23;1765206;81;21376;-72
2023/01/05 08:46:24;;;;;;;11.85;8.03;;;;;;;6.95;69.89;99264.66;1765107;81;21634;-71
2023/01/05 08:48:53;;;;;;;10.10;7.80;;;;;;;6.93;69.36;99271.28;1765388;81;21052;-70
2023/01/05 08:51:27;;;;;;;9.98;7.45;;;;;;;6.92;69.30;99262.53;1765577;81;20957;-74
2023/01/05 08:53:53;;;;;;;11.28;7.87;;;;;;;6.91;69.20;99259.62;1746306;81;21304;-71
2023/01/05 08:56:23;;;;;;;12.25;8.43;;;;;;;6.94;69.08;99267.56;1744004;81;21031;-71
2023/01/05 08:58:51;;;;;;;10.05;7.40;;;;;;;6.98;69.07;99256.17;1734943;82;20960;-71
2023/01/05 09:01:20;;;;;;;10.68;8.25;;;;;;;7.05;68.91;99231.47;1735092;82;20976;-70
2023/01/05 09:03:47;;;;;;;10.93;7.80;;;;;;;7.15;68.82;99248.47;1735026;82;20972;-71
2023/01/05 09:06:17;;;;;;;10.55;7.95;;;;;;;7.16;68.16;99248.19;1735113;82;21106;-70
2023/01/05 09:08:44;;;;;;;10.15;7.85;;;;;;;7.18;68.10;99232.01;1734910;82;21103;-71
2023/01/05 09:11:15;;;;;;;11.63;8.30;;;;;;;7.18;67.90;99228.81;1735025;82;21223;-70
2023/01/05 09:13:47;;;;;;;10.28;8.00;;;;;;;7.25;67.92;99225.89;1736247;81;20960;-71
2023/01/05 09:16:17;;;;;;;10.75;7.78;;;;;;;7.28;67.78;99220.84;1735013;82;21110;-70
2023/01/05 09:18:44;;;;;;;11.53;7.75;;;;;;;7.33;67.69;99213.92;1735081;82;21125;-72
2023/01/05 09:21:11;;;;;;;10.82;7.53;;;;;;;7.42;67.77;99208.33;1734997;82;20961;-72
2023/01/05 09:23:37;;;;;;;10.55;7.95;;;;;;;7.47;67.48;99195.05;1734829;82;21558;-70
2023/01/05 09:26:06;;;;;;;9.55;6.87;;;;;;;7.53;67.54;99178.00;1735200;82;21005;-71
2023/01/05 09:28:35;;;;;;;9.78;6.50;;;;;;;7.62;67.47;99183.03;1749550;81;21115;-72
2023/01/05 09:31:15;;;;;;;8.85;6.95;;;;;;;7.68;67.22;99181.95;1764342;81;21193;-71
2023/01/05 09:33:44;;;;;;;9.43;7.00;;;;;;;7.72;67.17;99186.98;1765189;81;20937;-72
2023/01/05 09:36:16;;;;;;;10.43;7.40;;;;;;;7.74;66.96;99179.54;1760823;81;21495;-70
2023/01/05 09:38:49;;;;;;;8.45;6.67;;;;;;;7.78;66.85;99174.47;1771100;81;21536;-70
2023/01/05 09:41:46;;;;;;;8.95;6.60;;;;;;;7.84;66.88;99167.28;1765550;81;21128;-71
2023/01/05 09:44:36;;;;;;;9.60;6.50;;;;;;;7.90;66.86;99163.00;1765482;81;21131;-71
2023/01/05 09:47:14;;;;;;;10.60;7.33;;;;;;;7.95;66.69;99156.31;1748305;81;21091;-70
2023/01/05 09:49:46;;;;;;;9.83;6.65;;;;;;;8.02;66.65;99154.68;1734888;82;21058;-74
2023/01/05 09:52:12;;;;;;;8.90;6.42;;;;;;;8.04;66.53;99145.91;1735303;82;20993;-72
2023/01/05 09:54:39;;;;;;;7.80;5.70;;;;;;;8.07;66.54;99144.03;1716433;82;20961;-70
2023/01/05 09:57:17;;;;;;;10.25;6.60;;;;;;;8.11;66.55;99133.09;1735132;82;21269;-72
2023/01/05 09:59:54;;;;;;;8.95;6.15;;;;;;;8.10;66.66;99128.06;1734752;82;20999;-71
2023/01/05 10:02:32;;;;;;;9.20;6.70;;;;;;;8.13;66.81;99128.31;1735014;82;21031;-70
2023/01/05 10:05:00;;;;;;;8.78;5.80;;;;;;;8.15;66.99;99128.02;1735985;81;20973;-72
2023/01/05 10:07:51;;;;;;;9.05;6.15;;;;;;;8.17;67.20;99116.05;1735093;82;21440;-69
2023/01/05 10:14:09;;;;;;;8.90;6.00;;;;;;;8.18;67.37;99116.30;1735235;82;20996;-73
2023/01/05 10:16:37;;;;;;;7.97;6.08;;;;;;;8.16;67.73;99106.99;1716223;82;21115;-71
2023/01/05 10:19:07;;;;;;;8.73;5.80;;;;;;;8.18;67.94;99101.66;1734323;82;20999;-72
2023/01/05 10:21:55;;;;;;;8.63;6.00;;;;;;;8.22;68.11;99109.88;1741595;81;21491;-71
2023/01/05 10:24:46;;;;;;;9.00;5.85;;;;;;;8.24;68.21;99097.11;1734839;82;21040;-73
2023/01/05 10:27:25;;;;;;;7.97;5.22;;;;;;;8.21;68.46;99110.96;1748919;81;20989;-70
2023/01/05 10:30:00;;;;;;;7.95;5.60;;;;;;;8.19;68.61;99098.47;1765236;81;20980;-70
2023/01/05 10:32:44;;;;;;;7.90;5.30;;;;;;;8.16;68.77;99089.20;1765533;81;21076;-69
2023/01/05 10:35:42;;;;;;;8.65;5.55;;;;;;;8.16;68.90;99071.09;1755722;81;21048;-70
2023/01/05 10:38:34;;;;;;;7.62;5.67;;;;;;;8.18;68.94;99068.42;1763723;81;21843;-72
2023/01/05 10:41:17;;;;;;;;;;;;;;;8.18;68.97;99073.73;1768028;81;21099;-71
2023/01/05 10:44:07;;;;;;;9.73;5.33;;;;;;;8.20;69.00;99067.62;1765587;81;20156;-71
2023/01/05 10:46:38;;;;;;;9.53;6.08;;;;;;;8.21;69.04;99070.52;1751923;81;21000;-71
2023/01/05 10:49:05;;;;;;;7.35;5.17;;;;;;;8.23;69.00;99060.95;1765186;81;21029;-72
2023/01/05 10:51:33;;;;;;;7.75;5.25;;;;;;;8.22;68.93;99062.01;1765479;81;22157;-71
2023/01/05 10:53:59;;;;;;;6.97;5.22;;;;;;;8.26;68.97;99051.60;1764389;81;21028;-74
2023/01/05 10:56:28;;;;;;;8.00;5.47;;;;;;;8.30;68.94;99045.47;1765788;80;21130;-72
2023/01/05 10:59:11;;;;;;;6.90;5.35;;;;;;;8.32;68.92;99043.84;1765201;81;21555;-71
2023/01/05 11:01:46;;;;;;;7.87;5.25;;;;;;;8.34;68.83;99046.48;1765460;81;20984;-71
2023/01/05 11:04:20;;;;;;;8.00;5.62;;;;;;;8.32;68.83;99037.19;1764949;81;21136;-70
2023/01/05 11:06:48;;;;;;;7.60;5.33;;;;;;;8.29;68.93;99037.23;1765483;81;20965;-72
2023/01/05 11:09:22;;;;;;;8.40;5.62;;;;;;;8.30;68.94;99040.14;1765404;81;21484;-72
2023/01/05 11:11:58;;;;;;;7.97;5.33;;;;;;;8.35;68.96;99037.97;1764184;81;20957;-71
2023/01/05 11:14:26;;;;;;;9.28;5.65;;;;;;;8.38;68.96;99035.57;1764690;81;21036;-71
2023/01/05 11:16:58;;;;;;;7.08;4.95;;;;;;;8.42;68.87;99027.82;1765312;81;21877;-72
2023/01/05 11:19:31;;;;;;;7.35;5.20;;;;;;;8.45;68.77;99022.73;1765291;81;21558;-71
2023/01/05 11:21:57;;;;;;;7.53;4.55;;;;;;;8.47;68.65;99027.78;1765292;81;21000;-72
2023/01/05 11:24:33;;;;;;;7.22;4.90;;;;;;;8.52;68.66;99017.08;1765440;81;21066;-71
2023/01/05 11:27:10;;;;;;;8.83;5.42;;;;;;;8.58;68.53;99018.63;1749376;81;20998;-70
2023/01/05 11:29:36;;;;;;;8.40;4.87;;;;;;;8.56;68.30;99012.80;1733480;81;21112;-70
2023/01/05 11:32:05;;;;;;;8.25;5.25;;;;;;;8.56;68.25;99006.69;1735006;82;21064;-72
2023/01/05 11:34:48;;;;;;;8.23;4.78;;;;;;;8.60;68.28;99005.84;1734908;82;21051;-70
2023/01/05 11:37:26;;;;;;;7.37;4.85;;;;;;;8.60;68.16;99007.72;1734885;81;21055;-72
2023/01/05 11:39:56;;;;;;;8.03;5.22;;;;;;;8.63;68.12;99015.92;1735036;82;21071;-72
2023/01/05 11:42:28;;;;;;;8.23;5.10;;;;;;;8.66;68.16;98999.39;1715890;82;21131;-71
2023/01/05 11:44:57;;;;;;;;;;;;;;;8.63;68.08;98993.30;1738253;81;21526;-72
2023/01/05 11:47:46;;;;;;;6.67;4.78;;;;;;;8.63;68.14;98994.63;1734963;82;20438;-70
2023/01/05 11:50:20;;;;;;;8.13;4.42;;;;;;;8.63;68.17;98995.96;1734804;82;21519;-71
2023/01/05 11:53:01;;;;;;;7.45;4.33;;;;;;;8.64;68.28;98993.55;1734597;82;21047;-72
2023/01/05 11:55:38;;;;;;;7.12;4.60;;;;;;;8.73;68.22;98997.73;1716146;82;21650;-72
2023/01/05 11:58:22;;;;;;;6.87;4.30;;;;;;;8.75;68.14;98989.44;1734791;82;21016;-70
2023/01/05 12:01:25;;;;;;;6.65;4.30;;;;;;;8.79;68.11;98988.61;1716172;82;21024;-72
2023/01/05 12:04:17;;;;;;;6.20;4.45;;;;;;;8.85;68.03;98978.16;1735995;81;21028;-70
2023/01/05 12:07:30;;;;;;;7.53;4.20;;;;;;;8.88;67.89;98987.43;1735340;82;20976;-70
2023/01/05 12:10:04;;;;;;;7.90;4.67;;;;;;;8.92;67.87;98980.48;1734917;82;21657;-72
2023/01/05 12:13:04;;;;;;;7.55;4.50;;;;;;;8.96;67.77;98972.17;1728547;82;21036;-70
2023/01/05 12:15:44;;;;;;;6.25;4.20;;;;;;;9.01;67.71;98967.31;1735005;82;21000;-70
2023/01/05 12:18:19;;;;;;;8.10;4.62;;;;;;;9.01;67.62;98964.11;1718572;82;21086;-72
2023/01/05 12:21:02;;;;;;;5.87;4.05;;;;;;;9.03;67.59;98969.16;1733589;81;21423;-71
2023/01/05 12:23:40;;;;;;;6.50;4.10;;;;;;;9.06;67.62;98960.06;1747945;81;20964;-71
2023/01/05 12:26:33;;;;;;;5.92;3.80;;;;;;;9.05;67.47;98959.81;1735235;82;21044;-71
2023/01/05 12:29:35;;;;;;;6.55;4.33;;;;;;;9.03;67.54;98958.52;1734901;82;21020;-71
2023/01/05 12:32:36;;;;;;;5.70;3.80;;;;;;;9.05;67.68;98953.67;1735391;82;21539;-71
2023/01/05 12:35:37;;;;;;;6.30;3.60;;;;;;;9.02;67.81;98947.07;1734473;82;21084;-70
2023/01/05 12:38:37;;;;;;;5.20;3.17;;;;;;;9.04;67.89;98945.44;1765140;81;21251;-70